Terminal Aerodrome Forecast
Issued by NWS

Home | Current Version | Previous Version | Text Only | Print | Product List | Glossary On
Versions: 1 2 3 4 5 6 7 8 9 10 11 12 13 14 15 16 17 18 19 20 21 22 23 24 25 26 27 28 29 30 31 32 33 34 35 36 37 38 39 40 41 42 43 44 45 46 47 48 49 50
000
FTUS46 KSEW 211721
TAFSEA
TAF
KSEA 211721Z 2118/2224 19005KT P6SM FEW005 SCT022 BKN045
      TEMPO 2118/2122 BKN022 OVC045
     FM212200 18006KT P6SM SCT030 SCT200
     FM220900 16006KT P6SM SCT050 BKN100 OVC200
     FM221400 15006KT P6SM -RA OVC045
     FM222000 16008KT 5SM -RA BR OVC020=

USA.gov is the U.S. government's official web portal to all federal, state and local government web resources and services.